sensor_id;sensor_type;location;lat;lon;timestamp;temperature;humidity
6486;DHT22;3276;48.490;9.222;2023-07-29T00:01:35;17.00;57.00
6486;DHT22;3276;48.490;9.222;2023-07-29T00:04:01;17.10;56.50
6486;DHT22;3276;48.490;9.222;2023-07-29T00:06:27;17.10;55.20
6486;DHT22;3276;48.490;9.222;2023-07-29T00:08:53;17.20;54.90
6486;DHT22;3276;48.490;9.222;2023-07-29T00:11:18;17.20;53.60
6486;DHT22;3276;48.490;9.222;2023-07-29T00:13:44;17.30;53.80
6486;DHT22;3276;48.490;9.222;2023-07-29T00:16:10;17.30;53.60
6486;DHT22;3276;48.490;9.222;2023-07-29T00:18:35;17.30;53.40
6486;DHT22;3276;48.490;9.222;2023-07-29T00:21:01;17.40;53.00
6486;DHT22;3276;48.490;9.222;2023-07-29T00:23:27;17.40;52.60
6486;DHT22;3276;48.490;9.222;2023-07-29T00:25:52;17.40;52.00
6486;DHT22;3276;48.490;9.222;2023-07-29T00:28:18;17.50;51.90
6486;DHT22;3276;48.490;9.222;2023-07-29T00:30:43;17.50;51.10
6486;DHT22;3276;48.490;9.222;2023-07-29T00:33:09;17.50;51.20
6486;DHT22;3276;48.490;9.222;2023-07-29T00:35:34;17.50;50.80
6486;DHT22;3276;48.490;9.222;2023-07-29T00:38:00;17.60;50.50
6486;DHT22;3276;48.490;9.222;2023-07-29T00:40:28;17.60;50.60
6486;DHT22;3276;48.490;9.222;2023-07-29T00:42:54;17.60;50.30
6486;DHT22;3276;48.490;9.222;2023-07-29T00:45:19;17.60;51.00
6486;DHT22;3276;48.490;9.222;2023-07-29T00:47:45;17.60;50.70
6486;DHT22;3276;48.490;9.222;2023-07-29T00:50:12;17.70;50.00
6486;DHT22;3276;48.490;9.222;2023-07-29T00:52:38;17.70;48.70
6486;DHT22;3276;48.490;9.222;2023-07-29T00:55:05;17.80;48.30
6486;DHT22;3276;48.490;9.222;2023-07-29T00:57:31;17.90;48.50
6486;DHT22;3276;48.490;9.222;2023-07-29T00:59:57;17.90;47.40
6486;DHT22;3276;48.490;9.222;2023-07-29T01:02:23;17.90;47.30
6486;DHT22;3276;48.490;9.222;2023-07-29T01:04:57;17.90;46.80
6486;DHT22;3276;48.490;9.222;2023-07-29T01:12:54;18.00;46.10
6486;DHT22;3276;48.490;9.222;2023-07-29T01:15:48;17.90;47.10
6486;DHT22;3276;48.490;9.222;2023-07-29T01:18:23;17.90;47.90
6486;DHT22;3276;48.490;9.222;2023-07-29T01:20:50;18.00;47.30
6486;DHT22;3276;48.490;9.222;2023-07-29T01:23:24;18.00;44.90
6486;DHT22;3276;48.490;9.222;2023-07-29T01:25:49;18.00;44.00
6486;DHT22;3276;48.490;9.222;2023-07-29T01:28:15;18.00;44.40
6486;DHT22;3276;48.490;9.222;2023-07-29T01:30:43;18.00;45.00
6486;DHT22;3276;48.490;9.222;2023-07-29T01:33:26;18.00;45.20
6486;DHT22;3276;48.490;9.222;2023-07-29T01:35:58;18.10;43.90
6486;DHT22;3276;48.490;9.222;2023-07-29T01:38:35;18.10;44.00
6486;DHT22;3276;48.490;9.222;2023-07-29T01:41:03;18.20;43.90
6486;DHT22;3276;48.490;9.222;2023-07-29T01:43:32;18.20;43.40
6486;DHT22;3276;48.490;9.222;2023-07-29T01:45:58;18.20;43.30
6486;DHT22;3276;48.490;9.222;2023-07-29T01:48:24;18.10;43.20
6486;DHT22;3276;48.490;9.222;2023-07-29T01:50:50;18.10;43.00
6486;DHT22;3276;48.490;9.222;2023-07-29T01:53:15;18.20;42.00
6486;DHT22;3276;48.490;9.222;2023-07-29T01:55:42;18.20;41.60
6486;DHT22;3276;48.490;9.222;2023-07-29T01:58:07;18.10;42.00
6486;DHT22;3276;48.490;9.222;2023-07-29T02:00:36;18.00;43.30
6486;DHT22;3276;48.490;9.222;2023-07-29T02:03:04;18.00;43.30
6486;DHT22;3276;48.490;9.222;2023-07-29T02:05:30;18.00;44.50
6486;DHT22;3276;48.490;9.222;2023-07-29T02:07:55;17.90;43.80
6486;DHT22;3276;48.490;9.222;2023-07-29T02:10:21;17.90;44.70
6486;DHT22;3276;48.490;9.222;2023-07-29T02:12:46;17.80;45.10
6486;DHT22;3276;48.490;9.222;2023-07-29T02:15:12;17.70;45.40
6486;DHT22;3276;48.490;9.222;2023-07-29T02:17:37;17.60;43.90
6486;DHT22;3276;48.490;9.222;2023-07-29T02:20:03;17.50;45.30
6486;DHT22;3276;48.490;9.222;2023-07-29T02:22:29;17.50;46.80
6486;DHT22;3276;48.490;9.222;2023-07-29T02:24:55;17.40;46.90
6486;DHT22;3276;48.490;9.222;2023-07-29T02:27:20;17.40;46.80
6486;DHT22;3276;48.490;9.222;2023-07-29T02:29:46;17.30;47.70
6486;DHT22;3276;48.490;9.222;2023-07-29T02:32:12;17.30;47.80
6486;DHT22;3276;48.490;9.222;2023-07-29T02:34:37;17.30;47.80
6486;DHT22;3276;48.490;9.222;2023-07-29T02:37:03;17.30;47.80
6486;DHT22;3276;48.490;9.222;2023-07-29T02:39:29;17.20;47.80
6486;DHT22;3276;48.490;9.222;2023-07-29T02:41:54;17.10;49.20
6486;DHT22;3276;48.490;9.222;2023-07-29T02:44:21;17.10;50.50
6486;DHT22;3276;48.490;9.222;2023-07-29T02:46:46;17.10;51.30
6486;DHT22;3276;48.490;9.222;2023-07-29T02:49:12;17.10;51.30
6486;DHT22;3276;48.490;9.222;2023-07-29T02:51:38;17.20;52.30
6486;DHT22;3276;48.490;9.222;2023-07-29T02:54:03;17.30;50.60
6486;DHT22;3276;48.490;9.222;2023-07-29T02:56:29;17.40;50.30
6486;DHT22;3276;48.490;9.222;2023-07-29T02:58:56;17.40;50.30
6486;DHT22;3276;48.490;9.222;2023-07-29T03:01:23;17.50;49.20
6486;DHT22;3276;48.490;9.222;2023-07-29T03:03:50;17.50;49.30
6486;DHT22;3276;48.490;9.222;2023-07-29T03:06:16;17.60;48.30
6486;DHT22;3276;48.490;9.222;2023-07-29T03:08:41;17.60;46.70
6486;DHT22;3276;48.490;9.222;2023-07-29T03:11:09;17.70;43.30
6486;DHT22;3276;48.490;9.222;2023-07-29T03:13:36;17.70;40.90
6486;DHT22;3276;48.490;9.222;2023-07-29T03:16:13;17.70;39.60
6486;DHT22;3276;48.490;9.222;2023-07-29T03:18:39;17.70;40.40
6486;DHT22;3276;48.490;9.222;2023-07-29T03:21:06;17.80;38.80
6486;DHT22;3276;48.490;9.222;2023-07-29T03:23:33;17.90;39.40
6486;DHT22;3276;48.490;9.222;2023-07-29T03:26:00;17.90;38.60
6486;DHT22;3276;48.490;9.222;2023-07-29T03:28:27;17.90;38.90
6486;DHT22;3276;48.490;9.222;2023-07-29T03:30:56;18.00;39.60
6486;DHT22;3276;48.490;9.222;2023-07-29T03:33:22;17.90;40.70
6486;DHT22;3276;48.490;9.222;2023-07-29T03:35:48;17.80;41.50
6486;DHT22;3276;48.490;9.222;2023-07-29T03:38:14;17.80;42.40
6486;DHT22;3276;48.490;9.222;2023-07-29T03:40:40;17.70;43.10
6486;DHT22;3276;48.490;9.222;2023-07-29T03:43:06;17.70;44.00
6486;DHT22;3276;48.490;9.222;2023-07-29T03:45:33;17.70;44.90
6486;DHT22;3276;48.490;9.222;2023-07-29T03:47:58;17.70;45.40
6486;DHT22;3276;48.490;9.222;2023-07-29T03:50:24;17.80;45.90
6486;DHT22;3276;48.490;9.222;2023-07-29T03:52:50;17.70;46.90
6486;DHT22;3276;48.490;9.222;2023-07-29T03:55:15;17.70;47.70
6486;DHT22;3276;48.490;9.222;2023-07-29T03:57:41;17.70;47.70
6486;DHT22;3276;48.490;9.222;2023-07-29T04:00:07;17.70;47.40
6486;DHT22;3276;48.490;9.222;2023-07-29T04:02:34;17.80;47.10
6486;DHT22;3276;48.490;9.222;2023-07-29T04:05:03;17.80;47.40
6486;DHT22;3276;48.490;9.222;2023-07-29T04:07:28;17.70;46.80
6486;DHT22;3276;48.490;9.222;2023-07-29T04:09:54;17.70;48.20
6486;DHT22;3276;48.490;9.222;2023-07-29T04:12:20;17.70;48.20
6486;DHT22;3276;48.490;9.222;2023-07-29T04:14:47;17.80;47.10
6486;DHT22;3276;48.490;9.222;2023-07-29T04:17:12;17.80;46.30
6486;DHT22;3276;48.490;9.222;2023-07-29T04:19:38;17.80;46.70
6486;DHT22;3276;48.490;9.222;2023-07-29T04:22:04;17.90;45.60
6486;DHT22;3276;48.490;9.222;2023-07-29T04:24:29;17.90;46.50
6486;DHT22;3276;48.490;9.222;2023-07-29T04:26:55;17.90;45.00
6486;DHT22;3276;48.490;9.222;2023-07-29T04:29:20;17.90;45.70
6486;DHT22;3276;48.490;9.222;2023-07-29T04:31:48;18.00;45.00
6486;DHT22;3276;48.490;9.222;2023-07-29T04:34:14;18.10;45.30
6486;DHT22;3276;48.490;9.222;2023-07-29T04:36:39;18.10;43.40
6486;DHT22;3276;48.490;9.222;2023-07-29T04:39:08;18.20;43.50
6486;DHT22;3276;48.490;9.222;2023-07-29T04:41:34;18.30;42.50
6486;DHT22;3276;48.490;9.222;2023-07-29T04:44:00;18.50;40.70
6486;DHT22;3276;48.490;9.222;2023-07-29T04:46:25;18.70;39.70
6486;DHT22;3276;48.490;9.222;2023-07-29T04:48:51;18.90;38.70
6486;DHT22;3276;48.490;9.222;2023-07-29T04:51:16;19.10;36.50
6486;DHT22;3276;48.490;9.222;2023-07-29T04:53:42;19.20;36.90
6486;DHT22;3276;48.490;9.222;2023-07-29T04:56:07;19.30;34.80
6486;DHT22;3276;48.490;9.222;2023-07-29T04:58:33;19.40;34.00
6486;DHT22;3276;48.490;9.222;2023-07-29T05:01:01;19.40;33.00
6486;DHT22;3276;48.490;9.222;2023-07-29T05:03:27;19.50;30.80
6486;DHT22;3276;48.490;9.222;2023-07-29T05:05:53;19.50;30.50
6486;DHT22;3276;48.490;9.222;2023-07-29T05:08:20;19.60;31.00
6486;DHT22;3276;48.490;9.222;2023-07-29T05:10:49;19.60;31.10
6486;DHT22;3276;48.490;9.222;2023-07-29T05:13:15;19.70;30.80
6486;DHT22;3276;48.490;9.222;2023-07-29T05:15:41;19.50;30.00
6486;DHT22;3276;48.490;9.222;2023-07-29T05:18:06;19.00;33.30
6486;DHT22;3276;48.490;9.222;2023-07-29T05:20:32;18.60;32.20
6486;DHT22;3276;48.490;9.222;2023-07-29T05:22:58;18.50;34.20
6486;DHT22;3276;48.490;9.222;2023-07-29T05:25:23;18.40;35.50
6486;DHT22;3276;48.490;9.222;2023-07-29T05:27:49;18.50;35.30
6486;DHT22;3276;48.490;9.222;2023-07-29T05:30:14;18.50;34.80
6486;DHT22;3276;48.490;9.222;2023-07-29T05:32:40;18.50;35.70
6486;DHT22;3276;48.490;9.222;2023-07-29T05:35:06;18.60;35.70
6486;DHT22;3276;48.490;9.222;2023-07-29T05:37:32;18.70;34.40
6486;DHT22;3276;48.490;9.222;2023-07-29T05:39:57;18.70;35.30
6486;DHT22;3276;48.490;9.222;2023-07-29T05:42:23;18.80;34.10
6486;DHT22;3276;48.490;9.222;2023-07-29T05:44:48;18.90;33.60
6486;DHT22;3276;48.490;9.222;2023-07-29T05:47:14;18.90;34.00
6486;DHT22;3276;48.490;9.222;2023-07-29T05:49:39;19.10;33.80
6486;DHT22;3276;48.490;9.222;2023-07-29T05:52:05;19.60;31.70
6486;DHT22;3276;48.490;9.222;2023-07-29T05:54:31;20.20;28.60
6486;DHT22;3276;48.490;9.222;2023-07-29T05:56:56;20.30;26.40
6486;DHT22;3276;48.490;9.222;2023-07-29T05:59:22;20.60;25.60
6486;DHT22;3276;48.490;9.222;2023-07-29T06:01:47;20.80;25.00
6486;DHT22;3276;48.490;9.222;2023-07-29T06:04:13;20.70;23.60
6486;DHT22;3276;48.490;9.222;2023-07-29T06:06:39;20.80;24.10
6486;DHT22;3276;48.490;9.222;2023-07-29T06:09:04;21.00;23.00
6486;DHT22;3276;48.490;9.222;2023-07-29T06:11:30;21.70;23.00
6486;DHT22;3276;48.490;9.222;2023-07-29T06:13:55;23.70;19.80
6486;DHT22;3276;48.490;9.222;2023-07-29T06:16:21;25.50;11.30
6486;DHT22;3276;48.490;9.222;2023-07-29T06:18:46;26.80;5.40
6486;DHT22;3276;48.490;9.222;2023-07-29T06:21:12;27.10;2.80
6486;DHT22;3276;48.490;9.222;2023-07-29T06:23:42;25.80;5.40
6486;DHT22;3276;48.490;9.222;2023-07-29T06:26:08;25.10;6.10
6486;DHT22;3276;48.490;9.222;2023-07-29T06:28:34;24.50;8.20
6486;DHT22;3276;48.490;9.222;2023-07-29T06:31:00;23.90;10.90
6486;DHT22;3276;48.490;9.222;2023-07-29T06:33:25;23.90;9.60
6486;DHT22;3276;48.490;9.222;2023-07-29T06:35:51;23.80;10.20
6486;DHT22;3276;48.490;9.222;2023-07-29T06:38:16;23.70;11.20
6486;DHT22;3276;48.490;9.222;2023-07-29T06:40:49;23.60;12.70
6486;DHT22;3276;48.490;9.222;2023-07-29T06:43:16;23.90;11.80
6486;DHT22;3276;48.490;9.222;2023-07-29T06:45:42;24.40;9.90
6486;DHT22;3276;48.490;9.222;2023-07-29T06:48:07;25.00;7.90
6486;DHT22;3276;48.490;9.222;2023-07-29T06:50:33;25.60;6.80
6486;DHT22;3276;48.490;9.222;2023-07-29T06:52:58;26.10;5.50
6486;DHT22;3276;48.490;9.222;2023-07-29T06:55:24;26.00;3.80
6486;DHT22;3276;48.490;9.222;2023-07-29T06:57:49;25.40;6.00
6486;DHT22;3276;48.490;9.222;2023-07-29T07:00:15;24.60;7.60
6486;DHT22;3276;48.490;9.222;2023-07-29T07:02:43;23.90;10.30
6486;DHT22;3276;48.490;9.222;2023-07-29T07:05:09;23.40;12.70
6486;DHT22;3276;48.490;9.222;2023-07-29T07:07:35;22.50;16.20
6486;DHT22;3276;48.490;9.222;2023-07-29T07:10:00;22.00;18.80
6486;DHT22;3276;48.490;9.222;2023-07-29T07:12:26;21.30;23.70
6486;DHT22;3276;48.490;9.222;2023-07-29T07:14:51;20.90;27.00
6486;DHT22;3276;48.490;9.222;2023-07-29T07:17:17;20.60;29.70
6486;DHT22;3276;48.490;9.222;2023-07-29T07:19:43;20.50;32.00
6486;DHT22;3276;48.490;9.222;2023-07-29T07:22:09;20.30;33.70
6486;DHT22;3276;48.490;9.222;2023-07-29T07:24:34;20.30;34.80
6486;DHT22;3276;48.490;9.222;2023-07-29T07:27:00;20.30;34.90
6486;DHT22;3276;48.490;9.222;2023-07-29T07:29:26;20.50;35.00
6486;DHT22;3276;48.490;9.222;2023-07-29T07:31:52;20.60;33.30
6486;DHT22;3276;48.490;9.222;2023-07-29T07:34:19;20.90;31.90
6486;DHT22;3276;48.490;9.222;2023-07-29T07:36:44;20.90;29.30
6486;DHT22;3276;48.490;9.222;2023-07-29T07:39:10;21.00;28.50
6486;DHT22;3276;48.490;9.222;2023-07-29T07:41:36;21.20;29.80
6486;DHT22;3276;48.490;9.222;2023-07-29T07:44:01;21.50;27.30
6486;DHT22;3276;48.490;9.222;2023-07-29T07:46:28;21.70;26.40
6486;DHT22;3276;48.490;9.222;2023-07-29T07:48:54;21.90;24.50
6486;DHT22;3276;48.490;9.222;2023-07-29T07:51:20;21.70;23.70
6486;DHT22;3276;48.490;9.222;2023-07-29T07:53:45;21.60;24.40
6486;DHT22;3276;48.490;9.222;2023-07-29T07:56:11;21.70;24.00
6486;DHT22;3276;48.490;9.222;2023-07-29T07:58:37;21.70;24.00
6486;DHT22;3276;48.490;9.222;2023-07-29T08:01:07;21.50;23.20
6486;DHT22;3276;48.490;9.222;2023-07-29T08:03:33;21.50;24.20
6486;DHT22;3276;48.490;9.222;2023-07-29T08:05:59;21.60;23.70
6486;DHT22;3276;48.490;9.222;2023-07-29T08:08:26;21.60;22.90
6486;DHT22;3276;48.490;9.222;2023-07-29T08:10:56;21.70;23.50
6486;DHT22;3276;48.490;9.222;2023-07-29T08:13:23;21.70;23.50
6486;DHT22;3276;48.490;9.222;2023-07-29T08:15:50;21.50;22.50
6486;DHT22;3276;48.490;9.222;2023-07-29T08:18:16;21.50;24.10
6486;DHT22;3276;48.490;9.222;2023-07-29T08:20:55;21.50;24.90
6486;DHT22;3276;48.490;9.222;2023-07-29T08:23:21;21.40;25.20
6486;DHT22;3276;48.490;9.222;2023-07-29T08:25:54;21.60;25.90
6486;DHT22;3276;48.490;9.222;2023-07-29T08:28:22;21.60;25.30
6486;DHT22;3276;48.490;9.222;2023-07-29T08:30:48;21.70;25.00
6486;DHT22;3276;48.490;9.222;2023-07-29T08:33:14;21.90;25.60
6486;DHT22;3276;48.490;9.222;2023-07-29T08:35:40;22.00;26.00
6486;DHT22;3276;48.490;9.222;2023-07-29T08:38:05;22.20;25.00
6486;DHT22;3276;48.490;9.222;2023-07-29T08:40:32;21.70;24.90
6486;DHT22;3276;48.490;9.222;2023-07-29T08:43:04;21.60;26.30
6486;DHT22;3276;48.490;9.222;2023-07-29T08:45:33;21.50;27.00
6486;DHT22;3276;48.490;9.222;2023-07-29T08:48:02;21.30;29.20
6486;DHT22;3276;48.490;9.222;2023-07-29T08:50:31;21.40;29.30
6486;DHT22;3276;48.490;9.222;2023-07-29T08:52:59;21.10;30.20
6486;DHT22;3276;48.490;9.222;2023-07-29T08:55:25;21.00;32.00
6486;DHT22;3276;48.490;9.222;2023-07-29T08:57:51;20.70;33.70
6486;DHT22;3276;48.490;9.222;2023-07-29T09:00:17;20.60;35.80
6486;DHT22;3276;48.490;9.222;2023-07-29T09:02:43;20.90;34.40
6486;DHT22;3276;48.490;9.222;2023-07-29T09:05:08;21.40;31.80
6486;DHT22;3276;48.490;9.222;2023-07-29T09:07:36;22.00;28.20
6486;DHT22;3276;48.490;9.222;2023-07-29T09:10:01;23.30;25.00
6486;DHT22;3276;48.490;9.222;2023-07-29T09:12:27;26.30;14.70
6486;DHT22;3276;48.490;9.222;2023-07-29T09:14:53;28.10;6.60
6486;DHT22;3276;48.490;9.222;2023-07-29T09:17:20;28.30;3.40
6486;DHT22;3276;48.490;9.222;2023-07-29T09:19:50;27.70;4.10
6486;DHT22;3276;48.490;9.222;2023-07-29T09:22:26;27.40;4.30
6486;DHT22;3276;48.490;9.222;2023-07-29T09:24:53;27.00;5.00
6486;DHT22;3276;48.490;9.222;2023-07-29T09:27:28;26.90;7.90
6486;DHT22;3276;48.490;9.222;2023-07-29T09:29:57;26.90;4.90
6486;DHT22;3276;48.490;9.222;2023-07-29T09:32:24;26.90;5.00
6486;DHT22;3276;48.490;9.222;2023-07-29T09:34:50;26.80;5.30
6486;DHT22;3276;48.490;9.222;2023-07-29T09:37:25;26.90;5.40
6486;DHT22;3276;48.490;9.222;2023-07-29T09:39:51;27.10;4.80
6486;DHT22;3276;48.490;9.222;2023-07-29T09:42:20;26.80;4.40
6486;DHT22;3276;48.490;9.222;2023-07-29T09:44:48;26.80;8.10
6486;DHT22;3276;48.490;9.222;2023-07-29T09:49:47;26.40;7.70
6486;DHT22;3276;48.490;9.222;2023-07-29T09:52:23;26.50;9.50
6486;DHT22;3276;48.490;9.222;2023-07-29T09:54:49;26.30;6.60
6486;DHT22;3276;48.490;9.222;2023-07-29T09:57:17;26.00;6.40
6486;DHT22;3276;48.490;9.222;2023-07-29T09:59:43;25.80;6.00
6486;DHT22;3276;48.490;9.222;2023-07-29T10:02:21;25.60;6.30
6486;DHT22;3276;48.490;9.222;2023-07-29T10:04:47;25.50;7.00
6486;DHT22;3276;48.490;9.222;2023-07-29T10:07:13;26.00;9.10
6486;DHT22;3276;48.490;9.222;2023-07-29T10:09:45;25.80;5.00
6486;DHT22;3276;48.490;9.222;2023-07-29T10:12:11;26.00;5.20
6486;DHT22;3276;48.490;9.222;2023-07-29T10:14:38;26.40;7.10
6486;DHT22;3276;48.490;9.222;2023-07-29T10:17:05;26.80;3.70
6486;DHT22;3276;48.490;9.222;2023-07-29T10:19:31;27.10;2.80
6486;DHT22;3276;48.490;9.222;2023-07-29T10:21:59;26.80;2.10
6486;DHT22;3276;48.490;9.222;2023-07-29T10:24:32;26.40;1.30
6486;DHT22;3276;48.490;9.222;2023-07-29T10:26:59;26.60;2.50
6486;DHT22;3276;48.490;9.222;2023-07-29T10:29:32;26.50;1.00
6486;DHT22;3276;48.490;9.222;2023-07-29T10:32:01;26.10;2.20
6486;DHT22;3276;48.490;9.222;2023-07-29T10:34:30;26.30;1.30
6486;DHT22;3276;48.490;9.222;2023-07-29T10:36:56;26.40;1.00
6486;DHT22;3276;48.490;9.222;2023-07-29T10:39:24;26.40;1.00
6486;DHT22;3276;48.490;9.222;2023-07-29T10:41:59;26.50;1.00
6486;DHT22;3276;48.490;9.222;2023-07-29T10:47:17;27.30;1.00
6486;DHT22;3276;48.490;9.222;2023-07-29T10:49:44;27.50;1.00
6486;DHT22;3276;48.490;9.222;2023-07-29T10:52:15;27.40;1.00
6486;DHT22;3276;48.490;9.222;2023-07-29T10:54:45;27.10;1.00
6486;DHT22;3276;48.490;9.222;2023-07-29T10:57:14;27.00;1.00
6486;DHT22;3276;48.490;9.222;2023-07-29T10:59:41;27.30;1.00
6486;DHT22;3276;48.490;9.222;2023-07-29T11:02:18;27.10;1.00
6486;DHT22;3276;48.490;9.222;2023-07-29T11:04:50;27.20;1.00
6486;DHT22;3276;48.490;9.222;2023-07-29T11:10:26;27.40;1.00
6486;DHT22;3276;48.490;9.222;2023-07-29T11:12:51;27.80;1.00
6486;DHT22;3276;48.490;9.222;2023-07-29T11:15:26;27.60;1.00
6486;DHT22;3276;48.490;9.222;2023-07-29T11:17:59;27.70;1.00
6486;DHT22;3276;48.490;9.222;2023-07-29T11:20:30;27.50;1.00
6486;DHT22;3276;48.490;9.222;2023-07-29T11:22:58;27.50;1.00
6486;DHT22;3276;48.490;9.222;2023-07-29T11:25:25;28.00;1.00
6486;DHT22;3276;48.490;9.222;2023-07-29T11:27:54;28.10;1.00
6486;DHT22;3276;48.490;9.222;2023-07-29T11:30:20;28.20;1.00
6486;DHT22;3276;48.490;9.222;2023-07-29T11:32:46;28.10;1.00
6486;DHT22;3276;48.490;9.222;2023-07-29T11:35:16;28.00;1.00
6486;DHT22;3276;48.490;9.222;2023-07-29T11:37:47;27.00;1.00
6486;DHT22;3276;48.490;9.222;2023-07-29T11:40:17;27.30;1.00
6486;DHT22;3276;48.490;9.222;2023-07-29T11:42:43;27.00;1.00
6486;DHT22;3276;48.490;9.222;2023-07-29T11:45:09;26.50;1.00
6486;DHT22;3276;48.490;9.222;2023-07-29T11:47:35;26.50;1.00
6486;DHT22;3276;48.490;9.222;2023-07-29T11:50:05;26.30;1.00
6486;DHT22;3276;48.490;9.222;2023-07-29T11:52:35;26.10;1.00
6486;DHT22;3276;48.490;9.222;2023-07-29T11:55:02;26.30;1.00
6486;DHT22;3276;48.490;9.222;2023-07-29T11:57:33;26.00;1.00
6486;DHT22;3276;48.490;9.222;2023-07-29T12:00:02;26.10;1.00
6486;DHT22;3276;48.490;9.222;2023-07-29T12:02:29;26.20;1.00
6486;DHT22;3276;48.490;9.222;2023-07-29T12:04:55;26.30;1.00
6486;DHT22;3276;48.490;9.222;2023-07-29T12:07:24;26.40;1.00
6486;DHT22;3276;48.490;9.222;2023-07-29T12:09:50;26.60;1.00
6486;DHT22;3276;48.490;9.222;2023-07-29T12:12:17;26.60;1.00
6486;DHT22;3276;48.490;9.222;2023-07-29T12:14:45;26.20;1.00
6486;DHT22;3276;48.490;9.222;2023-07-29T12:17:12;26.40;1.00
6486;DHT22;3276;48.490;9.222;2023-07-29T12:19:38;26.40;1.00
6486;DHT22;3276;48.490;9.222;2023-07-29T12:22:06;26.40;1.00
6486;DHT22;3276;48.490;9.222;2023-07-29T12:24:34;26.40;1.00
6486;DHT22;3276;48.490;9.222;2023-07-29T12:27:00;26.90;1.00
6486;DHT22;3276;48.490;9.222;2023-07-29T12:29:26;26.80;1.00
6486;DHT22;3276;48.490;9.222;2023-07-29T12:32:00;26.80;1.00
6486;DHT22;3276;48.490;9.222;2023-07-29T12:34:28;27.20;1.00
6486;DHT22;3276;48.490;9.222;2023-07-29T12:36:56;27.30;1.00
6486;DHT22;3276;48.490;9.222;2023-07-29T12:39:23;27.50;1.00
6486;DHT22;3276;48.490;9.222;2023-07-29T12:41:50;27.20;1.00
6486;DHT22;3276;48.490;9.222;2023-07-29T12:44:17;26.90;1.00
6486;DHT22;3276;48.490;9.222;2023-07-29T12:46:42;27.30;1.00
6486;DHT22;3276;48.490;9.222;2023-07-29T12:49:08;27.80;1.00
6486;DHT22;3276;48.490;9.222;2023-07-29T12:51:34;27.70;1.00
6486;DHT22;3276;48.490;9.222;2023-07-29T12:54:00;27.90;1.00
6486;DHT22;3276;48.490;9.222;2023-07-29T12:56:26;27.90;1.00
6486;DHT22;3276;48.490;9.222;2023-07-29T12:58:52;28.20;1.00
6486;DHT22;3276;48.490;9.222;2023-07-29T13:01:18;28.60;1.00
6486;DHT22;3276;48.490;9.222;2023-07-29T13:03:47;28.50;1.00
6486;DHT22;3276;48.490;9.222;2023-07-29T13:06:13;28.70;1.00
6486;DHT22;3276;48.490;9.222;2023-07-29T13:08:38;29.30;1.00
6486;DHT22;3276;48.490;9.222;2023-07-29T13:11:04;29.30;1.00
6486;DHT22;3276;48.490;9.222;2023-07-29T13:13:30;28.90;1.00
6486;DHT22;3276;48.490;9.222;2023-07-29T13:15:57;28.90;1.00
6486;DHT22;3276;48.490;9.222;2023-07-29T13:18:22;28.80;1.00
6486;DHT22;3276;48.490;9.222;2023-07-29T13:20:48;28.80;1.00
6486;DHT22;3276;48.490;9.222;2023-07-29T13:23:14;28.80;1.00
6486;DHT22;3276;48.490;9.222;2023-07-29T13:25:41;28.60;1.00
6486;DHT22;3276;48.490;9.222;2023-07-29T13:28:06;28.60;1.00
6486;DHT22;3276;48.490;9.222;2023-07-29T13:30:32;28.30;1.00
6486;DHT22;3276;48.490;9.222;2023-07-29T13:32:58;28.30;1.00
6486;DHT22;3276;48.490;9.222;2023-07-29T13:35:24;28.40;1.00
6486;DHT22;3276;48.490;9.222;2023-07-29T13:37:49;28.00;1.00
6486;DHT22;3276;48.490;9.222;2023-07-29T13:40:15;27.90;1.00
6486;DHT22;3276;48.490;9.222;2023-07-29T13:42:41;27.60;1.00
6486;DHT22;3276;48.490;9.222;2023-07-29T13:45:07;27.50;1.00
6486;DHT22;3276;48.490;9.222;2023-07-29T13:47:32;27.80;1.00
6486;DHT22;3276;48.490;9.222;2023-07-29T13:49:59;28.20;1.00
6486;DHT22;3276;48.490;9.222;2023-07-29T13:52:24;28.30;1.00
6486;DHT22;3276;48.490;9.222;2023-07-29T13:54:50;28.20;1.00
6486;DHT22;3276;48.490;9.222;2023-07-29T13:57:15;28.00;1.00
6486;DHT22;3276;48.490;9.222;2023-07-29T13:59:41;27.60;1.00
6486;DHT22;3276;48.490;9.222;2023-07-29T14:02:06;27.50;1.00
6486;DHT22;3276;48.490;9.222;2023-07-29T14:04:33;27.50;1.00
6486;DHT22;3276;48.490;9.222;2023-07-29T14:06:59;27.60;1.00
6486;DHT22;3276;48.490;9.222;2023-07-29T14:09:25;27.90;1.00
6486;DHT22;3276;48.490;9.222;2023-07-29T14:11:51;27.80;1.00
6486;DHT22;3276;48.490;9.222;2023-07-29T14:14:17;27.80;1.00
6486;DHT22;3276;48.490;9.222;2023-07-29T14:16:42;27.50;1.00
6486;DHT22;3276;48.490;9.222;2023-07-29T14:19:08;27.80;1.00
6486;DHT22;3276;48.490;9.222;2023-07-29T14:21:33;27.80;1.00
6486;DHT22;3276;48.490;9.222;2023-07-29T14:23:59;27.30;1.00
6486;DHT22;3276;48.490;9.222;2023-07-29T14:26:25;27.00;1.00
6486;DHT22;3276;48.490;9.222;2023-07-29T14:28:50;27.00;1.00
6486;DHT22;3276;48.490;9.222;2023-07-29T14:31:16;27.40;1.00
6486;DHT22;3276;48.490;9.222;2023-07-29T14:33:43;27.70;1.00
6486;DHT22;3276;48.490;9.222;2023-07-29T14:36:08;28.10;1.00
6486;DHT22;3276;48.490;9.222;2023-07-29T14:38:35;28.20;1.00
6486;DHT22;3276;48.490;9.222;2023-07-29T14:41:00;27.80;1.00
6486;DHT22;3276;48.490;9.222;2023-07-29T14:43:26;27.60;1.00
6486;DHT22;3276;48.490;9.222;2023-07-29T14:45:52;27.60;1.00
6486;DHT22;3276;48.490;9.222;2023-07-29T14:48:17;27.60;1.00
6486;DHT22;3276;48.490;9.222;2023-07-29T14:50:43;27.60;1.00
6486;DHT22;3276;48.490;9.222;2023-07-29T14:53:09;27.60;1.00
6486;DHT22;3276;48.490;9.222;2023-07-29T14:55:36;27.60;1.00
6486;DHT22;3276;48.490;9.222;2023-07-29T14:58:01;27.50;1.00
6486;DHT22;3276;48.490;9.222;2023-07-29T15:00:27;27.50;1.00
6486;DHT22;3276;48.490;9.222;2023-07-29T15:02:53;27.20;1.00
6486;DHT22;3276;48.490;9.222;2023-07-29T15:05:18;27.10;1.00
6486;DHT22;3276;48.490;9.222;2023-07-29T15:07:44;27.20;1.00
6486;DHT22;3276;48.490;9.222;2023-07-29T15:10:09;27.00;1.00
6486;DHT22;3276;48.490;9.222;2023-07-29T15:12:35;27.00;1.00
6486;DHT22;3276;48.490;9.222;2023-07-29T15:15:04;26.90;1.00
6486;DHT22;3276;48.490;9.222;2023-07-29T15:17:30;26.90;1.00
6486;DHT22;3276;48.490;9.222;2023-07-29T15:19:58;26.80;1.00
6486;DHT22;3276;48.490;9.222;2023-07-29T15:22:24;26.50;1.00
6486;DHT22;3276;48.490;9.222;2023-07-29T15:24:49;26.30;1.00
6486;DHT22;3276;48.490;9.222;2023-07-29T15:27:15;26.40;1.00
6486;DHT22;3276;48.490;9.222;2023-07-29T15:29:41;26.40;1.00
6486;DHT22;3276;48.490;9.222;2023-07-29T15:32:06;26.50;1.00
6486;DHT22;3276;48.490;9.222;2023-07-29T15:34:32;26.40;1.00
6486;DHT22;3276;48.490;9.222;2023-07-29T15:36:58;26.40;1.00
6486;DHT22;3276;48.490;9.222;2023-07-29T15:39:24;26.60;1.00
6486;DHT22;3276;48.490;9.222;2023-07-29T15:41:50;26.60;1.00
6486;DHT22;3276;48.490;9.222;2023-07-29T15:44:16;26.60;1.00
6486;DHT22;3276;48.490;9.222;2023-07-29T15:46:42;26.70;1.00
6486;DHT22;3276;48.490;9.222;2023-07-29T15:49:08;26.70;1.00
6486;DHT22;3276;48.490;9.222;2023-07-29T15:51:35;26.80;1.00
6486;DHT22;3276;48.490;9.222;2023-07-29T15:54:01;26.80;1.00
6486;DHT22;3276;48.490;9.222;2023-07-29T15:56:29;26.90;1.00
6486;DHT22;3276;48.490;9.222;2023-07-29T15:58:56;26.90;1.00
6486;DHT22;3276;48.490;9.222;2023-07-29T16:01:22;26.50;1.00
6486;DHT22;3276;48.490;9.222;2023-07-29T16:03:48;26.20;1.00
6486;DHT22;3276;48.490;9.222;2023-07-29T16:06:13;26.10;1.00
6486;DHT22;3276;48.490;9.222;2023-07-29T16:08:39;26.10;1.00
6486;DHT22;3276;48.490;9.222;2023-07-29T16:11:05;26.00;1.00
6486;DHT22;3276;48.490;9.222;2023-07-29T16:13:30;25.70;1.00
6486;DHT22;3276;48.490;9.222;2023-07-29T16:15:56;25.40;1.00
6486;DHT22;3276;48.490;9.222;2023-07-29T16:18:24;25.10;1.00
6486;DHT22;3276;48.490;9.222;2023-07-29T16:20:49;25.30;1.00